Archival Weather

Norman Y Mineta San Jose Intl

San Jose, California (KSJC)

Report from: Sunday, January 28, 2024 10:53 AM PST
Current time: Friday, June 14, 2024 6:23 AM PDT

Current weather – Weather history – Daily summaries
Weather forecast

Temperature18.9°C (66.0°F)
Dew point10.6°C (51.1°F)
Winds 3 kts (1.5 m/s, 3.5 mph) North (10°)
Visibility10 mi. (16.1 km)
Clouds Scattered clouds 15,000 ft. (4,572 m)
Altimeter30.17 in.Hg (1022 mB)
Relative humidity59 %
Density altitude354 ft. (108 m)
Sea-level pressure102.2 kPa (1022 mB, 30.17 in.Hg)
Remarks Automated weather observing station with precipitation discriminator
Flight conditions Visual Meteorological Conditions
Raw dataKSJC 281853Z 01003KT 10SM SCT150 19/11 A3017 RMK AO2 SLP217 T01890106
An error has occurred. This application may no longer respond until reloaded. Reload 🗙